sensor_id;sensor_type;location;lat;lon;timestamp;temperature;humidity
12922;DHT22;6528;48.086;16.282;2023-08-30T00:02:26;21.80;93.50
12922;DHT22;6528;48.086;16.282;2023-08-30T00:04:58;21.80;93.20
12922;DHT22;6528;48.086;16.282;2023-08-30T00:07:28;21.80;93.20
12922;DHT22;6528;48.086;16.282;2023-08-30T00:09:57;21.80;93.50
12922;DHT22;6528;48.086;16.282;2023-08-30T00:12:26;21.80;93.50
12922;DHT22;6528;48.086;16.282;2023-08-30T00:14:53;21.80;93.50
12922;DHT22;6528;48.086;16.282;2023-08-30T00:17:22;21.80;93.30
12922;DHT22;6528;48.086;16.282;2023-08-30T00:19:51;21.80;93.20
12922;DHT22;6528;48.086;16.282;2023-08-30T00:22:21;21.80;93.40
12922;DHT22;6528;48.086;16.282;2023-08-30T00:24:50;21.80;93.50
12922;DHT22;6528;48.086;16.282;2023-08-30T00:27:19;21.80;93.20
12922;DHT22;6528;48.086;16.282;2023-08-30T00:29:50;21.80;93.40
12922;DHT22;6528;48.086;16.282;2023-08-30T00:32:18;21.90;93.30
12922;DHT22;6528;48.086;16.282;2023-08-30T00:34:50;21.80;93.20
12922;DHT22;6528;48.086;16.282;2023-08-30T00:37:18;21.90;93.10
12922;DHT22;6528;48.086;16.282;2023-08-30T00:39:45;21.90;93.10
12922;DHT22;6528;48.086;16.282;2023-08-30T00:42:15;21.90;93.20
12922;DHT22;6528;48.086;16.282;2023-08-30T00:44:42;21.80;93.10
12922;DHT22;6528;48.086;16.282;2023-08-30T00:47:10;21.80;93.20
12922;DHT22;6528;48.086;16.282;2023-08-30T00:49:38;21.80;92.70
12922;DHT22;6528;48.086;16.282;2023-08-30T00:52:09;21.80;92.40
12922;DHT22;6528;48.086;16.282;2023-08-30T00:54:38;21.80;92.60
12922;DHT22;6528;48.086;16.282;2023-08-30T00:57:06;21.80;93.50
12922;DHT22;6528;48.086;16.282;2023-08-30T00:59:35;21.80;93.30
12922;DHT22;6528;48.086;16.282;2023-08-30T01:02:02;21.80;93.30
12922;DHT22;6528;48.086;16.282;2023-08-30T01:04:31;21.70;92.60
12922;DHT22;6528;48.086;16.282;2023-08-30T01:07:00;21.80;93.50
12922;DHT22;6528;48.086;16.282;2023-08-30T01:09:28;21.80;93.60
12922;DHT22;6528;48.086;16.282;2023-08-30T01:12:07;21.80;93.60
12922;DHT22;6528;48.086;16.282;2023-08-30T01:14:43;21.80;93.10
12922;DHT22;6528;48.086;16.282;2023-08-30T01:17:14;21.80;93.60
12922;DHT22;6528;48.086;16.282;2023-08-30T01:20:05;21.80;93.30
12922;DHT22;6528;48.086;16.282;2023-08-30T01:22:53;21.80;93.30
12922;DHT22;6528;48.086;16.282;2023-08-30T01:26:09;21.80;93.20
12922;DHT22;6528;48.086;16.282;2023-08-30T01:28:30;21.80;93.40
12922;DHT22;6528;48.086;16.282;2023-08-30T01:30:59;21.80;93.60
12922;DHT22;6528;48.086;16.282;2023-08-30T01:33:29;21.70;93.30
12922;DHT22;6528;48.086;16.282;2023-08-30T01:35:59;21.80;93.40
12922;DHT22;6528;48.086;16.282;2023-08-30T01:38:29;21.80;93.40
12922;DHT22;6528;48.086;16.282;2023-08-30T01:40:59;21.70;93.40
12922;DHT22;6528;48.086;16.282;2023-08-30T01:43:28;21.70;93.30
12922;DHT22;6528;48.086;16.282;2023-08-30T01:45:57;21.70;93.50
12922;DHT22;6528;48.086;16.282;2023-08-30T01:48:26;21.70;93.50
12922;DHT22;6528;48.086;16.282;2023-08-30T01:50:55;21.70;93.60
12922;DHT22;6528;48.086;16.282;2023-08-30T01:53:27;21.70;93.90
12922;DHT22;6528;48.086;16.282;2023-08-30T01:55:55;21.70;94.00
12922;DHT22;6528;48.086;16.282;2023-08-30T01:58:23;21.70;93.90
12922;DHT22;6528;48.086;16.282;2023-08-30T02:00:51;21.70;94.10
12922;DHT22;6528;48.086;16.282;2023-08-30T02:03:19;21.70;93.30
12922;DHT22;6528;48.086;16.282;2023-08-30T02:06:08;21.70;94.20
12922;DHT22;6528;48.086;16.282;2023-08-30T02:09:21;21.70;94.40
12922;DHT22;6528;48.086;16.282;2023-08-30T02:11:47;21.70;94.00
12922;DHT22;6528;48.086;16.282;2023-08-30T02:14:18;21.70;94.40
12922;DHT22;6528;48.086;16.282;2023-08-30T02:16:47;21.60;94.40
12922;DHT22;6528;48.086;16.282;2023-08-30T02:19:16;21.60;94.60
12922;DHT22;6528;48.086;16.282;2023-08-30T02:21:47;21.70;94.70
12922;DHT22;6528;48.086;16.282;2023-08-30T02:24:16;21.60;94.20
12922;DHT22;6528;48.086;16.282;2023-08-30T02:26:43;21.60;94.40
12922;DHT22;6528;48.086;16.282;2023-08-30T02:29:12;21.60;94.30
12922;DHT22;6528;48.086;16.282;2023-08-30T02:31:40;21.60;94.40
12922;DHT22;6528;48.086;16.282;2023-08-30T02:34:07;21.60;94.00
12922;DHT22;6528;48.086;16.282;2023-08-30T02:36:35;21.60;94.70
12922;DHT22;6528;48.086;16.282;2023-08-30T02:39:02;21.60;94.90
12922;DHT22;6528;48.086;16.282;2023-08-30T02:41:30;21.60;94.70
12922;DHT22;6528;48.086;16.282;2023-08-30T02:43:58;21.60;95.40
12922;DHT22;6528;48.086;16.282;2023-08-30T02:46:26;21.60;95.50
12922;DHT22;6528;48.086;16.282;2023-08-30T02:48:53;21.60;95.40
12922;DHT22;6528;48.086;16.282;2023-08-30T02:51:23;21.60;95.40
12922;DHT22;6528;48.086;16.282;2023-08-30T02:53:50;21.60;95.70
12922;DHT22;6528;48.086;16.282;2023-08-30T02:56:19;21.60;95.70
12922;DHT22;6528;48.086;16.282;2023-08-30T02:58:46;21.60;95.90
12922;DHT22;6528;48.086;16.282;2023-08-30T03:01:15;21.80;97.70
12922;DHT22;6528;48.086;16.282;2023-08-30T03:03:42;22.00;97.30
12922;DHT22;6528;48.086;16.282;2023-08-30T03:06:10;22.30;96.60
12922;DHT22;6528;48.086;16.282;2023-08-30T03:08:38;22.40;96.00
12922;DHT22;6528;48.086;16.282;2023-08-30T03:11:13;22.60;95.70
12922;DHT22;6528;48.086;16.282;2023-08-30T03:13:41;22.80;95.80
12922;DHT22;6528;48.086;16.282;2023-08-30T03:16:13;22.90;95.50
12922;DHT22;6528;48.086;16.282;2023-08-30T03:18:42;23.00;95.10
12922;DHT22;6528;48.086;16.282;2023-08-30T03:21:11;23.00;94.80
12922;DHT22;6528;48.086;16.282;2023-08-30T03:23:38;23.10;95.10
12922;DHT22;6528;48.086;16.282;2023-08-30T03:26:11;23.10;94.60
12922;DHT22;6528;48.086;16.282;2023-08-30T03:28:40;23.10;94.60
12922;DHT22;6528;48.086;16.282;2023-08-30T03:31:26;23.20;94.50
12922;DHT22;6528;48.086;16.282;2023-08-30T03:33:54;23.20;94.40
12922;DHT22;6528;48.086;16.282;2023-08-30T03:36:21;23.10;94.00
12922;DHT22;6528;48.086;16.282;2023-08-30T03:38:50;23.10;93.80
12922;DHT22;6528;48.086;16.282;2023-08-30T03:41:18;23.10;93.90
12922;DHT22;6528;48.086;16.282;2023-08-30T03:43:46;23.10;93.60
12922;DHT22;6528;48.086;16.282;2023-08-30T03:46:14;23.10;94.00
12922;DHT22;6528;48.086;16.282;2023-08-30T03:48:42;23.10;94.00
12922;DHT22;6528;48.086;16.282;2023-08-30T03:51:13;23.20;94.00
12922;DHT22;6528;48.086;16.282;2023-08-30T03:53:41;23.20;94.20
12922;DHT22;6528;48.086;16.282;2023-08-30T03:56:09;23.20;94.00
12922;DHT22;6528;48.086;16.282;2023-08-30T03:58:37;23.20;94.20
12922;DHT22;6528;48.086;16.282;2023-08-30T04:01:05;23.20;94.10
12922;DHT22;6528;48.086;16.282;2023-08-30T04:03:34;23.30;93.80
12922;DHT22;6528;48.086;16.282;2023-08-30T04:06:02;23.30;93.90
12922;DHT22;6528;48.086;16.282;2023-08-30T04:08:33;23.30;94.00
12922;DHT22;6528;48.086;16.282;2023-08-30T04:11:01;23.30;94.10
12922;DHT22;6528;48.086;16.282;2023-08-30T04:13:29;23.30;94.00
12922;DHT22;6528;48.086;16.282;2023-08-30T04:15:56;23.30;93.90
12922;DHT22;6528;48.086;16.282;2023-08-30T04:18:25;23.30;94.00
12922;DHT22;6528;48.086;16.282;2023-08-30T04:20:54;23.40;94.00
12922;DHT22;6528;48.086;16.282;2023-08-30T04:23:21;23.30;93.90
12922;DHT22;6528;48.086;16.282;2023-08-30T04:25:52;23.30;93.80
12922;DHT22;6528;48.086;16.282;2023-08-30T04:28:19;23.40;93.80
12922;DHT22;6528;48.086;16.282;2023-08-30T04:30:46;23.30;93.50
12922;DHT22;6528;48.086;16.282;2023-08-30T04:33:15;23.30;93.50
12922;DHT22;6528;48.086;16.282;2023-08-30T04:35:43;23.30;93.70
12922;DHT22;6528;48.086;16.282;2023-08-30T04:38:11;23.30;93.50
12922;DHT22;6528;48.086;16.282;2023-08-30T04:40:40;23.30;93.60
12922;DHT22;6528;48.086;16.282;2023-08-30T04:43:07;23.30;93.70
12922;DHT22;6528;48.086;16.282;2023-08-30T04:45:35;23.30;93.70
12922;DHT22;6528;48.086;16.282;2023-08-30T04:48:03;23.30;93.70
12922;DHT22;6528;48.086;16.282;2023-08-30T04:50:32;23.30;93.60
12922;DHT22;6528;48.086;16.282;2023-08-30T04:52:59;23.30;93.70
12922;DHT22;6528;48.086;16.282;2023-08-30T04:55:29;23.30;93.60
12922;DHT22;6528;48.086;16.282;2023-08-30T04:57:57;23.30;93.80
12922;DHT22;6528;48.086;16.282;2023-08-30T05:00:25;23.30;93.90
12922;DHT22;6528;48.086;16.282;2023-08-30T05:02:54;23.30;94.10
12922;DHT22;6528;48.086;16.282;2023-08-30T05:05:22;23.40;93.90
12922;DHT22;6528;48.086;16.282;2023-08-30T05:07:50;23.30;94.20
12922;DHT22;6528;48.086;16.282;2023-08-30T05:10:18;23.30;94.00
12922;DHT22;6528;48.086;16.282;2023-08-30T05:12:46;23.30;93.90
12922;DHT22;6528;48.086;16.282;2023-08-30T05:15:19;23.30;94.00
12922;DHT22;6528;48.086;16.282;2023-08-30T05:17:50;23.40;94.20
12922;DHT22;6528;48.086;16.282;2023-08-30T05:20:17;23.40;94.20
12922;DHT22;6528;48.086;16.282;2023-08-30T05:22:46;23.40;94.10
12922;DHT22;6528;48.086;16.282;2023-08-30T05:25:14;23.50;94.20
12922;DHT22;6528;48.086;16.282;2023-08-30T05:27:42;23.50;94.30
12922;DHT22;6528;48.086;16.282;2023-08-30T05:30:11;23.50;94.10
12922;DHT22;6528;48.086;16.282;2023-08-30T05:32:39;23.50;94.20
12922;DHT22;6528;48.086;16.282;2023-08-30T05:35:09;23.50;94.10
12922;DHT22;6528;48.086;16.282;2023-08-30T05:37:37;23.50;94.10
12922;DHT22;6528;48.086;16.282;2023-08-30T05:40:06;23.60;94.00
12922;DHT22;6528;48.086;16.282;2023-08-30T05:42:35;23.60;94.10
12922;DHT22;6528;48.086;16.282;2023-08-30T05:45:03;23.60;93.80
12922;DHT22;6528;48.086;16.282;2023-08-30T05:47:32;23.50;93.60
12922;DHT22;6528;48.086;16.282;2023-08-30T05:49:59;23.50;93.70
12922;DHT22;6528;48.086;16.282;2023-08-30T05:52:29;23.50;94.00
12922;DHT22;6528;48.086;16.282;2023-08-30T05:54:56;23.50;94.30
12922;DHT22;6528;48.086;16.282;2023-08-30T05:57:25;23.50;94.30
12922;DHT22;6528;48.086;16.282;2023-08-30T05:59:52;23.50;94.40
12922;DHT22;6528;48.086;16.282;2023-08-30T06:02:21;23.50;94.40
12922;DHT22;6528;48.086;16.282;2023-08-30T06:04:48;23.50;94.20
12922;DHT22;6528;48.086;16.282;2023-08-30T06:07:16;23.60;94.10
12922;DHT22;6528;48.086;16.282;2023-08-30T06:09:44;23.50;94.00
12922;DHT22;6528;48.086;16.282;2023-08-30T06:12:12;23.50;93.80
12922;DHT22;6528;48.086;16.282;2023-08-30T06:14:40;23.50;94.00
12922;DHT22;6528;48.086;16.282;2023-08-30T06:17:08;23.50;93.80
12922;DHT22;6528;48.086;16.282;2023-08-30T06:19:36;23.60;93.80
12922;DHT22;6528;48.086;16.282;2023-08-30T06:22:04;23.50;93.90
12922;DHT22;6528;48.086;16.282;2023-08-30T06:24:31;23.50;93.80
12922;DHT22;6528;48.086;16.282;2023-08-30T06:26:59;23.50;93.70
12922;DHT22;6528;48.086;16.282;2023-08-30T06:29:27;23.50;93.60
12922;DHT22;6528;48.086;16.282;2023-08-30T06:31:54;23.60;93.80
12922;DHT22;6528;48.086;16.282;2023-08-30T06:34:22;23.50;93.70
12922;DHT22;6528;48.086;16.282;2023-08-30T06:36:50;23.50;93.50
12922;DHT22;6528;48.086;16.282;2023-08-30T06:39:18;23.50;93.50
12922;DHT22;6528;48.086;16.282;2023-08-30T06:41:45;23.50;93.60
12922;DHT22;6528;48.086;16.282;2023-08-30T06:44:13;23.50;93.60
12922;DHT22;6528;48.086;16.282;2023-08-30T06:46:41;23.60;93.40
12922;DHT22;6528;48.086;16.282;2023-08-30T06:49:09;23.50;93.40
12922;DHT22;6528;48.086;16.282;2023-08-30T06:51:40;23.50;93.10
12922;DHT22;6528;48.086;16.282;2023-08-30T06:54:08;23.50;93.30
12922;DHT22;6528;48.086;16.282;2023-08-30T06:56:36;23.60;93.40
12922;DHT22;6528;48.086;16.282;2023-08-30T06:59:03;23.60;93.30
12922;DHT22;6528;48.086;16.282;2023-08-30T07:01:32;23.60;93.30
12922;DHT22;6528;48.086;16.282;2023-08-30T07:04:03;23.60;93.00
12922;DHT22;6528;48.086;16.282;2023-08-30T07:06:31;23.70;93.10
12922;DHT22;6528;48.086;16.282;2023-08-30T07:08:59;23.70;92.80
12922;DHT22;6528;48.086;16.282;2023-08-30T07:11:27;23.80;92.80
12922;DHT22;6528;48.086;16.282;2023-08-30T07:14:01;23.80;92.80
12922;DHT22;6528;48.086;16.282;2023-08-30T07:16:29;23.80;92.60
12922;DHT22;6528;48.086;16.282;2023-08-30T07:18:59;23.90;92.60
12922;DHT22;6528;48.086;16.282;2023-08-30T07:21:27;24.00;92.30
12922;DHT22;6528;48.086;16.282;2023-08-30T07:23:56;24.00;92.30
12922;DHT22;6528;48.086;16.282;2023-08-30T07:26:23;24.10;92.20
12922;DHT22;6528;48.086;16.282;2023-08-30T07:28:51;24.20;92.20
12922;DHT22;6528;48.086;16.282;2023-08-30T07:31:19;24.20;92.10
12922;DHT22;6528;48.086;16.282;2023-08-30T07:33:48;24.30;92.10
12922;DHT22;6528;48.086;16.282;2023-08-30T07:36:17;24.40;92.50
12922;DHT22;6528;48.086;16.282;2023-08-30T07:38:44;24.40;92.10
12922;DHT22;6528;48.086;16.282;2023-08-30T07:41:12;24.50;92.00
12922;DHT22;6528;48.086;16.282;2023-08-30T07:43:40;24.60;91.80
12922;DHT22;6528;48.086;16.282;2023-08-30T07:46:07;24.60;91.60
12922;DHT22;6528;48.086;16.282;2023-08-30T07:48:35;24.60;91.40
12922;DHT22;6528;48.086;16.282;2023-08-30T07:51:02;24.70;91.30
12922;DHT22;6528;48.086;16.282;2023-08-30T07:53:30;24.70;91.30
12922;DHT22;6528;48.086;16.282;2023-08-30T07:55:58;24.80;91.20
12922;DHT22;6528;48.086;16.282;2023-08-30T07:58:28;24.80;91.00
12922;DHT22;6528;48.086;16.282;2023-08-30T08:00:56;24.80;91.30
12922;DHT22;6528;48.086;16.282;2023-08-30T08:03:24;24.90;90.80
12922;DHT22;6528;48.086;16.282;2023-08-30T08:05:52;24.80;90.80
12922;DHT22;6528;48.086;16.282;2023-08-30T08:08:20;24.80;90.70
12922;DHT22;6528;48.086;16.282;2023-08-30T08:10:49;24.90;90.70
12922;DHT22;6528;48.086;16.282;2023-08-30T08:13:16;24.90;90.60
12922;DHT22;6528;48.086;16.282;2023-08-30T08:15:47;24.90;90.60
12922;DHT22;6528;48.086;16.282;2023-08-30T08:18:15;24.90;90.60
12922;DHT22;6528;48.086;16.282;2023-08-30T08:20:43;24.90;90.50
12922;DHT22;6528;48.086;16.282;2023-08-30T08:23:11;24.90;90.50
12922;DHT22;6528;48.086;16.282;2023-08-30T08:25:39;24.90;90.40
12922;DHT22;6528;48.086;16.282;2023-08-30T08:28:06;25.00;90.40
12922;DHT22;6528;48.086;16.282;2023-08-30T08:30:36;25.10;90.40
12922;DHT22;6528;48.086;16.282;2023-08-30T08:33:06;25.10;89.70
12922;DHT22;6528;48.086;16.282;2023-08-30T08:35:34;25.20;90.20
12922;DHT22;6528;48.086;16.282;2023-08-30T08:38:02;25.30;90.00
12922;DHT22;6528;48.086;16.282;2023-08-30T08:40:40;25.20;89.80
12922;DHT22;6528;48.086;16.282;2023-08-30T08:43:10;25.20;89.70
12922;DHT22;6528;48.086;16.282;2023-08-30T08:45:44;25.10;89.80
12922;DHT22;6528;48.086;16.282;2023-08-30T08:48:13;25.10;90.00
12922;DHT22;6528;48.086;16.282;2023-08-30T08:50:42;25.00;90.00
12922;DHT22;6528;48.086;16.282;2023-08-30T08:53:14;25.00;90.10
12922;DHT22;6528;48.086;16.282;2023-08-30T08:55:43;25.00;90.10
12922;DHT22;6528;48.086;16.282;2023-08-30T08:58:12;25.00;90.20
12922;DHT22;6528;48.086;16.282;2023-08-30T09:00:41;24.90;90.10
12922;DHT22;6528;48.086;16.282;2023-08-30T09:03:10;24.90;90.20
12922;DHT22;6528;48.086;16.282;2023-08-30T09:05:42;24.90;90.20
12922;DHT22;6528;48.086;16.282;2023-08-30T09:08:11;24.80;90.20
12922;DHT22;6528;48.086;16.282;2023-08-30T09:10:40;24.80;90.20
12922;DHT22;6528;48.086;16.282;2023-08-30T09:13:08;24.90;90.30
12922;DHT22;6528;48.086;16.282;2023-08-30T09:15:38;24.90;90.30
12922;DHT22;6528;48.086;16.282;2023-08-30T09:18:15;24.90;90.20
12922;DHT22;6528;48.086;16.282;2023-08-30T09:20:43;25.00;90.20
12922;DHT22;6528;48.086;16.282;2023-08-30T09:23:20;25.10;90.10
12922;DHT22;6528;48.086;16.282;2023-08-30T09:25:54;25.00;90.00
12922;DHT22;6528;48.086;16.282;2023-08-30T09:28:22;25.00;90.00
12922;DHT22;6528;48.086;16.282;2023-08-30T09:30:51;24.90;90.00
12922;DHT22;6528;48.086;16.282;2023-08-30T09:33:44;24.90;90.10
12922;DHT22;6528;48.086;16.282;2023-08-30T09:36:16;24.90;90.10
12922;DHT22;6528;48.086;16.282;2023-08-30T09:38:48;24.90;90.10
12922;DHT22;6528;48.086;16.282;2023-08-30T09:41:16;24.90;90.10
12922;DHT22;6528;48.086;16.282;2023-08-30T09:43:45;24.90;90.10
12922;DHT22;6528;48.086;16.282;2023-08-30T09:46:16;24.80;90.10
12922;DHT22;6528;48.086;16.282;2023-08-30T09:48:44;24.80;90.20
12922;DHT22;6528;48.086;16.282;2023-08-30T09:51:13;24.80;90.20
12922;DHT22;6528;48.086;16.282;2023-08-30T09:53:44;24.70;90.20
12922;DHT22;6528;48.086;16.282;2023-08-30T09:56:35;24.70;90.20
12922;DHT22;6528;48.086;16.282;2023-08-30T09:59:03;24.70;90.30
12922;DHT22;6528;48.086;16.282;2023-08-30T10:01:32;24.70;90.30
12922;DHT22;6528;48.086;16.282;2023-08-30T10:04:02;24.70;90.00
12922;DHT22;6528;48.086;16.282;2023-08-30T10:06:32;24.60;90.20
12922;DHT22;6528;48.086;16.282;2023-08-30T10:09:02;24.70;90.30
12922;DHT22;6528;48.086;16.282;2023-08-30T10:11:37;24.60;90.00
12922;DHT22;6528;48.086;16.282;2023-08-30T10:14:07;24.60;90.10
12922;DHT22;6528;48.086;16.282;2023-08-30T10:16:41;24.60;90.30
12922;DHT22;6528;48.086;16.282;2023-08-30T10:19:21;24.60;90.10
12922;DHT22;6528;48.086;16.282;2023-08-30T10:22:05;24.60;89.80
12922;DHT22;6528;48.086;16.282;2023-08-30T10:24:40;24.60;89.60
12922;DHT22;6528;48.086;16.282;2023-08-30T10:27:29;24.60;89.70
12922;DHT22;6528;48.086;16.282;2023-08-30T10:30:01;24.60;90.00
12922;DHT22;6528;48.086;16.282;2023-08-30T10:32:30;24.60;90.00
12922;DHT22;6528;48.086;16.282;2023-08-30T10:35:01;24.50;89.60
12922;DHT22;6528;48.086;16.282;2023-08-30T10:37:32;24.60;90.00
12922;DHT22;6528;48.086;16.282;2023-08-30T10:40:03;24.50;89.80
12922;DHT22;6528;48.086;16.282;2023-08-30T10:42:32;24.50;89.70
12922;DHT22;6528;48.086;16.282;2023-08-30T10:45:05;24.50;89.50
12922;DHT22;6528;48.086;16.282;2023-08-30T10:47:41;24.50;89.80
12922;DHT22;6528;48.086;16.282;2023-08-30T10:50:10;24.50;89.40
12922;DHT22;6528;48.086;16.282;2023-08-30T10:52:39;24.60;89.80
12922;DHT22;6528;48.086;16.282;2023-08-30T10:55:07;24.60;89.60
12922;DHT22;6528;48.086;16.282;2023-08-30T10:57:41;24.60;88.50
12922;DHT22;6528;48.086;16.282;2023-08-30T11:00:21;24.50;89.10
12922;DHT22;6528;48.086;16.282;2023-08-30T11:02:51;24.50;89.50
12922;DHT22;6528;48.086;16.282;2023-08-30T11:05:22;24.50;89.50
12922;DHT22;6528;48.086;16.282;2023-08-30T11:07:52;24.50;89.60
12922;DHT22;6528;48.086;16.282;2023-08-30T11:10:21;24.50;89.30
12922;DHT22;6528;48.086;16.282;2023-08-30T11:12:49;24.50;89.40
12922;DHT22;6528;48.086;16.282;2023-08-30T11:15:19;24.50;89.80
12922;DHT22;6528;48.086;16.282;2023-08-30T11:17:49;24.50;89.90
12922;DHT22;6528;48.086;16.282;2023-08-30T11:20:17;24.50;89.20
12922;DHT22;6528;48.086;16.282;2023-08-30T11:22:48;24.40;89.70
12922;DHT22;6528;48.086;16.282;2023-08-30T11:25:17;24.40;89.70
12922;DHT22;6528;48.086;16.282;2023-08-30T11:27:45;24.40;89.20
12922;DHT22;6528;48.086;16.282;2023-08-30T11:30:13;24.40;89.30
12922;DHT22;6528;48.086;16.282;2023-08-30T11:32:42;24.40;89.70
12922;DHT22;6528;48.086;16.282;2023-08-30T11:35:10;24.50;89.90
12922;DHT22;6528;48.086;16.282;2023-08-30T11:37:38;24.50;89.90
12922;DHT22;6528;48.086;16.282;2023-08-30T11:40:08;24.50;89.00
12922;DHT22;6528;48.086;16.282;2023-08-30T11:42:36;24.50;89.50
12922;DHT22;6528;48.086;16.282;2023-08-30T11:45:04;24.50;88.70
12922;DHT22;6528;48.086;16.282;2023-08-30T11:47:32;24.50;88.60
12922;DHT22;6528;48.086;16.282;2023-08-30T11:50:01;24.50;87.80
12922;DHT22;6528;48.086;16.282;2023-08-30T11:52:29;24.50;88.80
12922;DHT22;6528;48.086;16.282;2023-08-30T11:55:00;24.50;88.40
12922;DHT22;6528;48.086;16.282;2023-08-30T11:57:33;24.50;89.20
12922;DHT22;6528;48.086;16.282;2023-08-30T12:00:12;24.50;89.50
12922;DHT22;6528;48.086;16.282;2023-08-30T12:02:40;24.50;88.40
12922;DHT22;6528;48.086;16.282;2023-08-30T12:05:14;24.60;88.60
12922;DHT22;6528;48.086;16.282;2023-08-30T12:07:45;24.50;88.70
12922;DHT22;6528;48.086;16.282;2023-08-30T12:10:13;24.60;88.80
12922;DHT22;6528;48.086;16.282;2023-08-30T12:12:45;24.60;88.70
12922;DHT22;6528;48.086;16.282;2023-08-30T12:15:13;24.60;88.30
12922;DHT22;6528;48.086;16.282;2023-08-30T12:17:45;24.60;88.60
12922;DHT22;6528;48.086;16.282;2023-08-30T12:20:16;24.60;88.50
12922;DHT22;6528;48.086;16.282;2023-08-30T12:22:51;24.60;88.60
12922;DHT22;6528;48.086;16.282;2023-08-30T12:25:23;24.60;89.10
12922;DHT22;6528;48.086;16.282;2023-08-30T12:27:52;24.60;89.00
12922;DHT22;6528;48.086;16.282;2023-08-30T12:30:20;24.60;88.70
12922;DHT22;6528;48.086;16.282;2023-08-30T12:32:48;24.60;88.30
12922;DHT22;6528;48.086;16.282;2023-08-30T12:35:17;24.60;89.10
12922;DHT22;6528;48.086;16.282;2023-08-30T12:37:45;24.60;89.10
12922;DHT22;6528;48.086;16.282;2023-08-30T12:40:13;24.60;89.10
12922;DHT22;6528;48.086;16.282;2023-08-30T12:42:41;24.60;88.60
12922;DHT22;6528;48.086;16.282;2023-08-30T12:45:08;24.60;88.50
12922;DHT22;6528;48.086;16.282;2023-08-30T12:47:37;24.60;88.60
12922;DHT22;6528;48.086;16.282;2023-08-30T12:50:06;24.60;88.90
12922;DHT22;6528;48.086;16.282;2023-08-30T12:52:33;24.60;89.00
12922;DHT22;6528;48.086;16.282;2023-08-30T12:55:01;24.60;88.60
12922;DHT22;6528;48.086;16.282;2023-08-30T12:57:30;24.60;88.70
12922;DHT22;6528;48.086;16.282;2023-08-30T12:59:58;24.60;88.80
12922;DHT22;6528;48.086;16.282;2023-08-30T13:02:25;24.60;88.80
12922;DHT22;6528;48.086;16.282;2023-08-30T13:04:54;24.60;88.80
12922;DHT22;6528;48.086;16.282;2023-08-30T13:07:22;24.60;89.00
12922;DHT22;6528;48.086;16.282;2023-08-30T13:09:50;24.60;89.10
12922;DHT22;6528;48.086;16.282;2023-08-30T13:12:17;24.60;89.00
12922;DHT22;6528;48.086;16.282;2023-08-30T13:14:45;24.60;88.90
12922;DHT22;6528;48.086;16.282;2023-08-30T13:17:13;24.60;88.10
12922;DHT22;6528;48.086;16.282;2023-08-30T13:19:44;24.60;88.60
12922;DHT22;6528;48.086;16.282;2023-08-30T13:22:11;24.60;88.60
12922;DHT22;6528;48.086;16.282;2023-08-30T13:24:39;24.60;88.70
12922;DHT22;6528;48.086;16.282;2023-08-30T13:27:07;24.60;88.70
12922;DHT22;6528;48.086;16.282;2023-08-30T13:29:35;24.60;89.00
12922;DHT22;6528;48.086;16.282;2023-08-30T13:32:04;24.60;89.00
12922;DHT22;6528;48.086;16.282;2023-08-30T13:34:32;24.60;89.00
12922;DHT22;6528;48.086;16.282;2023-08-30T13:37:02;24.60;88.70
12922;DHT22;6528;48.086;16.282;2023-08-30T13:39:30;24.60;88.70
12922;DHT22;6528;48.086;16.282;2023-08-30T13:41:59;24.60;88.80
12922;DHT22;6528;48.086;16.282;2023-08-30T13:44:26;24.60;88.70
12922;DHT22;6528;48.086;16.282;2023-08-30T13:46:54;24.60;88.50
12922;DHT22;6528;48.086;16.282;2023-08-30T13:49:22;24.50;89.00
12922;DHT22;6528;48.086;16.282;2023-08-30T13:51:50;24.50;89.00
12922;DHT22;6528;48.086;16.282;2023-08-30T13:54:22;24.50;88.90
12922;DHT22;6528;48.086;16.282;2023-08-30T13:56:50;24.50;88.70
12922;DHT22;6528;48.086;16.282;2023-08-30T13:59:18;24.50;89.10
12922;DHT22;6528;48.086;16.282;2023-08-30T14:01:45;24.50;89.50
12922;DHT22;6528;48.086;16.282;2023-08-30T14:04:14;24.50;89.20
12922;DHT22;6528;48.086;16.282;2023-08-30T14:06:41;24.50;89.40
12922;DHT22;6528;48.086;16.282;2023-08-30T14:09:10;24.40;89.30
12922;DHT22;6528;48.086;16.282;2023-08-30T14:11:37;24.40;89.40
12922;DHT22;6528;48.086;16.282;2023-08-30T14:14:05;24.40;89.50
12922;DHT22;6528;48.086;16.282;2023-08-30T14:16:33;24.40;89.70
12922;DHT22;6528;48.086;16.282;2023-08-30T14:19:02;24.40;89.70
12922;DHT22;6528;48.086;16.282;2023-08-30T14:21:33;24.40;90.00
12922;DHT22;6528;48.086;16.282;2023-08-30T14:24:01;24.30;90.00
12922;DHT22;6528;48.086;16.282;2023-08-30T14:26:29;24.30;89.70
12922;DHT22;6528;48.086;16.282;2023-08-30T14:28:57;24.30;90.00
12922;DHT22;6528;48.086;16.282;2023-08-30T14:31:25;24.30;90.00
12922;DHT22;6528;48.086;16.282;2023-08-30T14:33:55;24.20;90.00
12922;DHT22;6528;48.086;16.282;2023-08-30T14:36:25;24.20;90.10
12922;DHT22;6528;48.086;16.282;2023-08-30T14:38:53;24.20;90.20
12922;DHT22;6528;48.086;16.282;2023-08-30T14:41:20;24.20;90.20
12922;DHT22;6528;48.086;16.282;2023-08-30T14:43:48;24.20;90.10
12922;DHT22;6528;48.086;16.282;2023-08-30T14:46:16;24.20;90.10
12922;DHT22;6528;48.086;16.282;2023-08-30T14:48:50;24.20;89.60
12922;DHT22;6528;48.086;16.282;2023-08-30T14:51:18;24.20;89.80
12922;DHT22;6528;48.086;16.282;2023-08-30T14:53:46;24.10;90.00
12922;DHT22;6528;48.086;16.282;2023-08-30T14:56:13;24.20;90.20
12922;DHT22;6528;48.086;16.282;2023-08-30T14:58:42;24.20;90.20
12922;DHT22;6528;48.086;16.282;2023-08-30T15:01:11;24.20;90.10
12922;DHT22;6528;48.086;16.282;2023-08-30T15:03:40;24.20;90.10
12922;DHT22;6528;48.086;16.282;2023-08-30T15:06:08;24.20;90.00
12922;DHT22;6528;48.086;16.282;2023-08-30T15:08:36;24.20;90.00
12922;DHT22;6528;48.086;16.282;2023-08-30T15:11:04;24.20;90.00
12922;DHT22;6528;48.086;16.282;2023-08-30T15:13:32;24.10;90.10
12922;DHT22;6528;48.086;16.282;2023-08-30T15:15:59;24.20;90.00
12922;DHT22;6528;48.086;16.282;2023-08-30T15:18:28;24.20;90.00
12922;DHT22;6528;48.086;16.282;2023-08-30T15:20:55;24.10;89.50
12922;DHT22;6528;48.086;16.282;2023-08-30T15:23:27;24.10;90.10
12922;DHT22;6528;48.086;16.282;2023-08-30T15:25:55;24.10;89.90
12922;DHT22;6528;48.086;16.282;2023-08-30T15:28:25;24.10;90.10
12922;DHT22;6528;48.086;16.282;2023-08-30T15:30:52;24.10;90.10
12922;DHT22;6528;48.086;16.282;2023-08-30T15:33:21;24.10;90.00
12922;DHT22;6528;48.086;16.282;2023-08-30T15:35:48;24.10;90.00
12922;DHT22;6528;48.086;16.282;2023-08-30T15:38:18;24.10;90.10
12922;DHT22;6528;48.086;16.282;2023-08-30T15:40:53;24.10;90.10
12922;DHT22;6528;48.086;16.282;2023-08-30T15:43:23;24.00;90.10
12922;DHT22;6528;48.086;16.282;2023-08-30T15:45:51;24.10;90.00